Omskiy-141 — UGZK — position and weather

sailwx.info

Track history (hours):
 
Tides and Currents Weather Stations Pressure Air Temp Water Temp Dewpoint Dewpoint Depression Visibility Wind Speed Wind Dir Waves Ship Positions

Omskiy-141

Last reported at 2016-Feb-11 14:33 UTC. Time now 2016-Feb-11 15:02 UTC.
Position N 55°13' E 013°53'.

Length 108 m; draft 3.4 m.

Type: Cargo ship. MMSI: 273310600.

Date/timePositionNaut miles runAvg speedWind from/ knotsBaromVisibWave heightAir tempDewpointWater temp
2016-Feb-11 14:33N 55°13' E 013°53'8 8.2
2016-Feb-11 13:33N 55°12' E 014°07'8 7.6
2016-Feb-11 12:33N 55°09' E 014°19'8 8.4
2016-Feb-11 11:34N 55°04' E 014°31'9 8.7
2016-Feb-11 10:33N 54°58' E 014°43'8 8.1
2016-Feb-11 09:33N 54°55' E 014°56'8 8.3
2016-Feb-11 08:34N 54°55' E 015°10'8 7.9
2016-Feb-11 07:33N 54°55' E 015°24'94 8.2
2016-Feb-10 20:10N 54°55' E 018°07'12 7.6
2016-Feb-10 18:33N 54°54' E 018°28'8 7.7
2016-Feb-10 17:33N 54°52' E 018°41'8 7.8
2016-Feb-10 16:33N 54°50' E 018°54'9 8.4
2016-Feb-10 15:32N 54°47' E 019°08'8 7.9
2016-Feb-10 14:34N 54°45' E 019°21'8 7.8
2016-Feb-10 13:33N 54°43' E 019°34'10 0.4
2016-Feb-09 13:14N 54°39' E 019°51'4 5.6
2016-Feb-09 12:34N 54°41' E 019°45'7 7.0
2016-Feb-09 11:34N 54°43' E 019°33'7 7.0
2016-Feb-09 10:34N 54°45' E 019°21'7 7.1
2016-Feb-09 09:33N 54°47' E 019°09'7 7.0
2016-Feb-09 08:34N 54°49' E 018°58'7 7.0
2016-Feb-09 07:33N 54°51' E 018°46'7 7.4
2016-Feb-09 06:34N 54°53' E 018°34'7 6.8
2016-Feb-09 05:33N 54°55' E 018°23'7 7.0
2016-Feb-09 04:34N 54°55' E 018°10'189 6.3
2016-Feb-07 22:33N 55°08' E 012°41'8 7.9
2016-Feb-07 21:33N 55°16' E 012°37'8 7.8
2016-Feb-07 20:34N 55°24' E 012°39'8 7.8
2016-Feb-07 19:33N 55°31' E 012°42'7 7.5
2016-Feb-07 18:34N 55°39' E 012°41'7 7.4
2016-Feb-07 17:33N 55°46' E 012°40'7 7.4
2016-Feb-07 16:33N 55°53' E 012°38'7 7.0
2016-Feb-07 15:34N 56°00' E 012°38'5 5.4
2016-Feb-07 14:33N 56°05' E 012°34'9 7.5
2016-Feb-07 13:23N 56°10' E 012°20'7 8.7
2016-Feb-07 12:34N 56°07' E 012°09'9 9.0
2016-Feb-07 11:34N 56°01' E 011°55'6 5.7
2016-Feb-07 10:32N 55°56' E 011°53'5 0.2
2016-Feb-06 14:09N 55°58' E 012°01'0 0.0
2016-Feb-06 13:33N 55°58' E 012°01'0 0.0
2016-Feb-06 12:33N 55°58' E 012°01'0 0.0
2016-Feb-06 11:33N 55°58' E 012°01'0 0.0
2016-Feb-06 10:34N 55°58' E 012°01'5 2.4
2016-Feb-06 08:28N 56°01' E 011°55'7 8.0
2016-Feb-06 07:33N 56°06' E 012°06'15 7.3
2016-Feb-06 05:31N 56°07' E 012°33'9 9.8
2016-Feb-06 04:33N 55°59' E 012°42'9 9.4
2016-Feb-06 03:33N 55°50' E 012°43'10 9.8
2016-Feb-06 02:33N 55°40' E 012°41'9 9.3
2016-Feb-06 01:34N 55°31' E 012°44'9 9.2
2016-Feb-06 00:34N 55°22' E 012°41'8 7.5
2016-Feb-05 23:33N 55°17' E 012°51'8 8.0
2016-Feb-05 22:33N 55°16' E 013°05'19 8.1
2016-Feb-05 20:14N 55°14' E 013°38'6 8.4
2016-Feb-05 19:34N 55°13' E 013°48'8 8.4
2016-Feb-05 18:34N 55°12' E 014°02'8 7.6
2016-Feb-05 17:34N 55°10' E 014°15'8 8.2
2016-Feb-05 16:34N 55°05' E 014°26'8 8.0
2016-Feb-05 15:34N 55°00' E 014°37'7 7.5
2016-Feb-05 14:34N 54°56' E 014°48'8 7.2
2016-Feb-05 13:30N 54°55' E 015°01'7 7.3
2016-Feb-05 12:34N 54°55' E 015°13'7 7.0
2016-Feb-05 11:30N 54°55' E 015°26'92 6.9
2016-Feb-04 22:04N 54°55' E 018°06'4 6.2
2016-Feb-04 21:27N 54°55' E 018°13'6 6.2
2016-Feb-04 20:33N 54°55' E 018°22'6 6.2
2016-Feb-04 19:33N 54°53' E 018°33'6 6.1
2016-Feb-04 18:34N 54°52' E 018°43'6 6.3
2016-Feb-04 17:33N 54°50' E 018°53'6 6.0
2016-Feb-04 16:33N 54°48' E 019°03'5 5.3
2016-Feb-04 15:33N 54°46' E 019°12'5 5.1
2016-Feb-04 14:34N 54°45' E 019°21'5 4.8
2016-Feb-04 13:34N 54°44' E 019°29'6 4.8
2016-Feb-04 12:20N 54°42' E 019°39'  
Track history (hours):
 
Tides and Currents Weather Stations Pressure Air Temp Water Temp Dewpoint Dewpoint Depression Visibility Wind Speed Wind Dir Waves Ship Positions

Omskiy-141

Last reported at 2016-Feb-11 14:33 UTC. Time now 2016-Feb-11 15:02 UTC.
Position N 55°13' E 013°53'.

Length 108 m; draft 3.4 m.

Type: Cargo ship. MMSI: 273310600.

Date/timePositionNaut miles runAvg speedWind from/ knotsBaromVisibWave heightAir tempDewpointWater temp
2016-Feb-11 14:33N 55°13' E 013°53'8 8.2
2016-Feb-11 13:33N 55°12' E 014°07'8 7.6
2016-Feb-11 12:33N 55°09' E 014°19'8 8.4
2016-Feb-11 11:34N 55°04' E 014°31'9 8.7
2016-Feb-11 10:33N 54°58' E 014°43'8 8.1
2016-Feb-11 09:33N 54°55' E 014°56'8 8.3
2016-Feb-11 08:34N 54°55' E 015°10'8 7.9
2016-Feb-11 07:33N 54°55' E 015°24'94 8.2
2016-Feb-10 20:10N 54°55' E 018°07'12 7.6
2016-Feb-10 18:33N 54°54' E 018°28'8 7.7
2016-Feb-10 17:33N 54°52' E 018°41'8 7.8
2016-Feb-10 16:33N 54°50' E 018°54'9 8.4
2016-Feb-10 15:32N 54°47' E 019°08'8 7.9
2016-Feb-10 14:34N 54°45' E 019°21'8 7.8
2016-Feb-10 13:33N 54°43' E 019°34'10 0.4
2016-Feb-09 13:14N 54°39' E 019°51'4 5.6
2016-Feb-09 12:34N 54°41' E 019°45'7 7.0
2016-Feb-09 11:34N 54°43' E 019°33'7 7.0
2016-Feb-09 10:34N 54°45' E 019°21'7 7.1
2016-Feb-09 09:33N 54°47' E 019°09'7 7.0
2016-Feb-09 08:34N 54°49' E 018°58'7 7.0
2016-Feb-09 07:33N 54°51' E 018°46'7 7.4
2016-Feb-09 06:34N 54°53' E 018°34'7 6.8
2016-Feb-09 05:33N 54°55' E 018°23'7 7.0
2016-Feb-09 04:34N 54°55' E 018°10'189 6.3
2016-Feb-07 22:33N 55°08' E 012°41'8 7.9
2016-Feb-07 21:33N 55°16' E 012°37'8 7.8
2016-Feb-07 20:34N 55°24' E 012°39'8 7.8
2016-Feb-07 19:33N 55°31' E 012°42'7 7.5
2016-Feb-07 18:34N 55°39' E 012°41'7 7.4
2016-Feb-07 17:33N 55°46' E 012°40'7 7.4
2016-Feb-07 16:33N 55°53' E 012°38'7 7.0
2016-Feb-07 15:34N 56°00' E 012°38'5 5.4
2016-Feb-07 14:33N 56°05' E 012°34'9 7.5
2016-Feb-07 13:23N 56°10' E 012°20'7 8.7
2016-Feb-07 12:34N 56°07' E 012°09'9 9.0
2016-Feb-07 11:34N 56°01' E 011°55'6 5.7
2016-Feb-07 10:32N 55°56' E 011°53'5 0.2
2016-Feb-06 14:09N 55°58' E 012°01'0 0.0
2016-Feb-06 13:33N 55°58' E 012°01'0 0.0
2016-Feb-06 12:33N 55°58' E 012°01'0 0.0
2016-Feb-06 11:33N 55°58' E 012°01'0 0.0
2016-Feb-06 10:34N 55°58' E 012°01'5 2.4
2016-Feb-06 08:28N 56°01' E 011°55'7 8.0
2016-Feb-06 07:33N 56°06' E 012°06'15 7.3
2016-Feb-06 05:31N 56°07' E 012°33'9 9.8
2016-Feb-06 04:33N 55°59' E 012°42'9 9.4
2016-Feb-06 03:33N 55°50' E 012°43'10 9.8
2016-Feb-06 02:33N 55°40' E 012°41'9 9.3
2016-Feb-06 01:34N 55°31' E 012°44'9 9.2
2016-Feb-06 00:34N 55°22' E 012°41'8 7.5
2016-Feb-05 23:33N 55°17' E 012°51'8 8.0
2016-Feb-05 22:33N 55°16' E 013°05'19 8.1
2016-Feb-05 20:14N 55°14' E 013°38'6 8.4
2016-Feb-05 19:34N 55°13' E 013°48'8 8.4
2016-Feb-05 18:34N 55°12' E 014°02'8 7.6
2016-Feb-05 17:34N 55°10' E 014°15'8 8.2
2016-Feb-05 16:34N 55°05' E 014°26'8 8.0
2016-Feb-05 15:34N 55°00' E 014°37'7 7.5
2016-Feb-05 14:34N 54°56' E 014°48'8 7.2
2016-Feb-05 13:30N 54°55' E 015°01'7 7.3
2016-Feb-05 12:34N 54°55' E 015°13'7 7.0
2016-Feb-05 11:30N 54°55' E 015°26'92 6.9
2016-Feb-04 22:04N 54°55' E 018°06'4 6.2
2016-Feb-04 21:27N 54°55' E 018°13'6 6.2
2016-Feb-04 20:33N 54°55' E 018°22'6 6.2
2016-Feb-04 19:33N 54°53' E 018°33'6 6.1
2016-Feb-04 18:34N 54°52' E 018°43'6 6.3
2016-Feb-04 17:33N 54°50' E 018°53'6 6.0
2016-Feb-04 16:33N 54°48' E 019°03'5 5.3
2016-Feb-04 15:33N 54°46' E 019°12'5 5.1
2016-Feb-04 14:34N 54°45' E 019°21'5 4.8
2016-Feb-04 13:34N 54°44' E 019°29'6 4.8
2016-Feb-04 12:20N 54°42' E 019°39'  

Dump ship's entire track history